createdAt,value
2023-09-10T00:01:02.795Z,32.68
2023-09-10T00:03:36.286Z,32.67
2023-09-10T00:05:49.066Z,32.64
2023-09-10T00:08:02.989Z,32.61
2023-09-10T00:10:16.382Z,32.59
2023-09-10T00:12:28.971Z,32.59
2023-09-10T00:14:41.760Z,32.59
2023-09-10T00:16:54.409Z,32.57
2023-09-10T00:19:06.987Z,32.54
2023-09-10T00:21:19.438Z,32.52
2023-09-10T00:23:32.282Z,32.50
2023-09-10T00:25:44.782Z,32.45
2023-09-10T00:27:57.220Z,32.39
2023-09-10T00:30:10.676Z,32.36
2023-09-10T00:32:24.331Z,32.33
2023-09-10T00:34:39.170Z,32.30
2023-09-10T00:36:52.902Z,32.29
2023-09-10T00:39:05.630Z,32.25
2023-09-10T00:41:18.148Z,32.24
2023-09-10T00:43:30.486Z,32.21
2023-09-10T00:45:43.308Z,32.17
2023-09-10T00:47:56.295Z,32.14
2023-09-10T00:50:11.785Z,32.11
2023-09-10T00:52:25.247Z,32.04
2023-09-10T00:54:39.725Z,32.04
2023-09-10T00:56:52.294Z,32.00
2023-09-10T00:59:05.052Z,31.95
2023-09-10T01:01:17.812Z,31.87
2023-09-10T01:03:31.471Z,31.85
2023-09-10T01:05:44.936Z,31.82
2023-09-10T01:07:57.915Z,31.78
2023-09-10T01:10:11.701Z,31.73
2023-09-10T01:12:35.546Z,31.70
2023-09-10T01:14:54.256Z,31.67
2023-09-10T01:17:12.863Z,31.64
2023-09-10T01:19:50.112Z,31.61
2023-09-10T01:22:10.037Z,31.59
2023-09-10T01:24:29.279Z,31.57
2023-09-10T01:26:44.647Z,31.54
2023-09-10T01:28:57.021Z,31.52
2023-09-10T01:31:09.526Z,31.48
2023-09-10T01:33:29.666Z,31.45
2023-09-10T01:35:49.984Z,31.41
2023-09-10T01:38:06.834Z,31.35
2023-09-10T01:40:24.948Z,31.32
2023-09-10T01:42:39.131Z,31.29
2023-09-10T01:44:52.691Z,31.26
2023-09-10T01:47:06.674Z,31.24
2023-09-10T01:49:19.358Z,31.21
2023-09-10T01:51:31.846Z,31.17
2023-09-10T01:53:44.464Z,31.14
2023-09-10T01:55:57.077Z,31.11
2023-09-10T01:58:10.862Z,31.06
2023-09-10T02:00:24.222Z,31.01
2023-09-10T02:02:36.820Z,30.95
2023-09-10T02:04:49.346Z,30.89
2023-09-10T02:07:01.781Z,30.84
2023-09-10T02:09:14.209Z,30.79
2023-09-10T02:11:27.442Z,30.72
2023-09-10T02:13:40.082Z,30.66
2023-09-10T02:15:53.473Z,30.58
2023-09-10T02:18:05.929Z,30.51
2023-09-10T02:20:20.021Z,30.44
2023-09-10T02:22:32.854Z,30.38
2023-09-10T02:24:45.565Z,30.32
2023-09-10T02:26:58.025Z,30.25
2023-09-10T02:29:10.837Z,30.17
2023-09-10T02:31:25.095Z,30.11
2023-09-10T02:33:37.578Z,30.06
2023-09-10T02:35:50.077Z,30.00
2023-09-10T02:38:02.522Z,29.93
2023-09-10T02:40:16.293Z,29.87
2023-09-10T02:42:28.730Z,29.80
2023-09-10T02:44:41.875Z,29.74
2023-09-10T02:46:54.799Z,29.70
2023-09-10T02:49:07.537Z,29.62
2023-09-10T02:51:19.834Z,29.56
2023-09-10T02:53:32.331Z,29.47
2023-09-10T02:55:45.076Z,29.38
2023-09-10T02:57:57.420Z,29.29
2023-09-10T03:00:13.457Z,29.18
2023-09-10T03:02:26.597Z,29.08
2023-09-10T03:04:39.011Z,29.02
2023-09-10T03:06:52.110Z,28.99
2023-09-10T03:09:05.038Z,28.94
2023-09-10T03:11:17.573Z,28.89
2023-09-10T03:13:30.009Z,28.84
2023-09-10T03:15:42.704Z,28.79
2023-09-10T03:17:55.011Z,28.73
2023-09-10T03:20:11.512Z,28.69
2023-09-10T03:22:23.849Z,28.63
2023-09-10T03:24:37.447Z,28.57
2023-09-10T03:26:51.002Z,28.50
2023-09-10T03:29:03.872Z,28.45
2023-09-10T03:31:18.825Z,28.41
2023-09-10T03:33:32.667Z,28.38
2023-09-10T03:35:45.687Z,28.34
2023-09-10T03:37:58.539Z,28.30
2023-09-10T03:40:14.303Z,28.23
2023-09-10T03:42:27.248Z,28.15
2023-09-10T03:44:39.992Z,28.08
2023-09-10T03:46:54.119Z,28.02
2023-09-10T03:49:07.051Z,27.94
2023-09-10T03:51:19.398Z,27.86
2023-09-10T03:53:31.948Z,27.81
2023-09-10T03:55:44.844Z,27.74
2023-09-10T03:57:57.505Z,27.66
2023-09-10T04:00:12.990Z,27.56
2023-09-10T04:02:26.891Z,27.48
2023-09-10T04:04:39.742Z,27.41
2023-09-10T04:06:52.878Z,27.35
2023-09-10T04:09:05.911Z,27.27
2023-09-10T04:11:18.626Z,27.19
2023-09-10T04:13:31.902Z,27.13
2023-09-10T04:15:45.348Z,27.07
2023-09-10T04:17:57.656Z,27.01
2023-09-10T04:20:12.278Z,26.95
2023-09-10T04:22:25.098Z,26.89
2023-09-10T04:24:37.916Z,26.81
2023-09-10T04:26:50.437Z,26.76
2023-09-10T04:29:03.328Z,26.70
2023-09-10T04:31:19.821Z,26.65
2023-09-10T04:33:32.671Z,26.58
2023-09-10T04:35:51.014Z,26.50
2023-09-10T04:38:05.761Z,26.39
2023-09-10T04:40:18.939Z,26.31
2023-09-10T04:42:33.772Z,26.22
2023-09-10T04:44:48.034Z,26.15
2023-09-10T04:47:00.648Z,26.09
2023-09-10T04:49:13.541Z,26.04
2023-09-10T04:51:26.019Z,25.98
2023-09-10T04:53:39.071Z,25.91
2023-09-10T04:55:57.832Z,25.85
2023-09-10T04:58:11.435Z,25.80
2023-09-10T05:00:24.963Z,25.77
2023-09-10T05:02:38.092Z,25.72
2023-09-10T05:04:51.502Z,25.66
2023-09-10T05:07:04.006Z,25.61
2023-09-10T05:09:16.314Z,25.56
2023-09-10T05:11:29.095Z,25.51
2023-09-10T05:13:42.862Z,25.47
2023-09-10T05:15:57.106Z,25.43
2023-09-10T05:18:11.015Z,25.38
2023-09-10T05:20:23.751Z,25.32
2023-09-10T05:22:36.226Z,25.26
2023-09-10T05:24:49.117Z,25.19
2023-09-10T05:27:01.513Z,25.12
2023-09-10T05:29:14.003Z,25.05
2023-09-10T05:31:26.404Z,24.97
2023-09-10T05:33:39.147Z,24.89
2023-09-10T05:36:02.659Z,24.82
2023-09-10T05:38:16.449Z,24.75
2023-09-10T05:40:29.897Z,24.69
2023-09-10T05:42:42.452Z,24.63
2023-09-10T05:44:57.042Z,24.57
2023-09-10T05:47:09.771Z,24.51
2023-09-10T05:49:22.712Z,24.46
2023-09-10T05:51:35.550Z,24.41
2023-09-10T05:53:48.307Z,24.36
2023-09-10T05:56:00.815Z,24.31
2023-09-10T05:58:13.583Z,24.25
2023-09-10T06:00:28.056Z,24.19
2023-09-10T06:02:40.852Z,24.14
2023-09-10T06:04:54.180Z,24.10
2023-09-10T06:07:07.888Z,24.06
2023-09-10T06:09:20.700Z,24.01
2023-09-10T06:11:33.131Z,23.97
2023-09-10T06:13:45.464Z,23.92
2023-09-10T06:15:58.040Z,23.88
2023-09-10T06:18:10.819Z,23.84
2023-09-10T06:20:23.341Z,23.78
2023-09-10T06:22:36.304Z,23.74
2023-09-10T06:24:49.000Z,23.68
2023-09-10T06:27:01.798Z,23.62
2023-09-10T06:29:14.295Z,23.57
2023-09-10T06:31:27.058Z,23.52
2023-09-10T06:33:39.504Z,23.47
2023-09-10T06:35:52.068Z,23.41
2023-09-10T06:38:04.865Z,23.34
2023-09-10T06:40:18.655Z,23.28
2023-09-10T06:42:31.372Z,23.22
2023-09-10T06:44:54.071Z,23.16
2023-09-10T06:47:06.808Z,23.10
2023-09-10T06:49:19.392Z,23.04
2023-09-10T06:51:32.965Z,22.94
2023-09-10T06:53:45.595Z,22.91
2023-09-10T06:55:58.074Z,22.85
2023-09-10T06:58:10.557Z,22.79
2023-09-10T07:00:24.348Z,22.75
2023-09-10T07:02:36.719Z,22.69
2023-09-10T07:04:51.346Z,22.63
2023-09-10T07:07:04.684Z,22.57
2023-09-10T07:09:18.014Z,22.52
2023-09-10T07:11:30.241Z,22.46
2023-09-10T07:13:42.913Z,22.43
2023-09-10T07:15:55.174Z,22.36
2023-09-10T07:18:08.455Z,22.33
2023-09-10T07:20:21.379Z,22.27
2023-09-10T07:22:35.240Z,22.21
2023-09-10T07:24:47.809Z,22.16
2023-09-10T07:27:01.125Z,22.09
2023-09-10T07:29:18.125Z,22.04
2023-09-10T07:31:30.476Z,21.98
2023-09-10T07:33:42.902Z,21.94
2023-09-10T07:35:55.318Z,21.90
2023-09-10T07:38:08.320Z,21.87
2023-09-10T07:40:21.716Z,21.83
2023-09-10T07:42:34.277Z,21.79
2023-09-10T07:44:46.872Z,21.75
2023-09-10T07:46:59.356Z,21.70
2023-09-10T07:49:11.986Z,21.64
2023-09-10T07:51:24.445Z,21.62
2023-09-10T07:53:37.043Z,21.59
2023-09-10T07:55:49.497Z,21.56
2023-09-10T07:58:02.009Z,21.54
2023-09-10T08:00:17.326Z,21.50
2023-09-10T08:02:31.021Z,21.44
2023-09-10T08:04:43.429Z,21.41
2023-09-10T08:06:55.738Z,21.38
2023-09-10T08:09:09.037Z,21.34
2023-09-10T08:11:21.564Z,21.31
2023-09-10T08:13:34.040Z,21.30
2023-09-10T08:15:46.493Z,21.27
2023-09-10T08:18:02.707Z,21.24
2023-09-10T08:20:17.553Z,21.19
2023-09-10T08:22:29.951Z,21.14
2023-09-10T08:24:44.981Z,21.08
2023-09-10T08:26:57.639Z,21.02
2023-09-10T08:29:10.736Z,20.98
2023-09-10T08:31:24.144Z,20.94
2023-09-10T08:33:36.641Z,20.89
2023-09-10T08:35:56.066Z,20.84
2023-09-10T08:38:08.850Z,20.80
2023-09-10T08:40:22.171Z,20.76
2023-09-10T08:42:41.613Z,20.73
2023-09-10T08:44:58.835Z,20.69
2023-09-10T08:47:16.830Z,20.64
2023-09-10T08:49:35.986Z,20.59
2023-09-10T08:51:48.830Z,20.54
2023-09-10T08:54:05.268Z,20.50
2023-09-10T08:56:18.949Z,20.46
2023-09-10T08:58:33.291Z,20.42
2023-09-10T09:00:47.072Z,20.40
2023-09-10T09:03:00.102Z,20.34
2023-09-10T09:05:14.178Z,20.31
2023-09-10T09:07:31.017Z,20.26
2023-09-10T09:09:46.586Z,20.21
2023-09-10T09:12:00.091Z,20.18
2023-09-10T09:14:15.255Z,20.15
2023-09-10T09:16:27.968Z,20.10
2023-09-10T09:18:42.148Z,20.06
2023-09-10T09:20:56.282Z,20.02
2023-09-10T09:23:17.137Z,19.96
2023-09-10T09:25:31.000Z,19.88
2023-09-10T09:27:44.979Z,19.86
2023-09-10T09:29:58.489Z,19.80
2023-09-10T09:32:12.083Z,19.76
2023-09-10T09:34:24.435Z,19.69
2023-09-10T09:36:39.310Z,19.63
2023-09-10T09:38:52.961Z,19.58
2023-09-10T09:41:08.760Z,19.54
2023-09-10T09:43:21.620Z,19.50
2023-09-10T09:45:35.001Z,19.47
2023-09-10T09:47:52.766Z,19.42
2023-09-10T09:50:06.054Z,19.38
2023-09-10T09:52:19.966Z,19.34
2023-09-10T09:54:33.154Z,19.31
2023-09-10T09:56:46.324Z,19.26
2023-09-10T09:59:04.358Z,19.22
2023-09-10T10:01:16.872Z,19.19
2023-09-10T10:03:29.582Z,19.17
2023-09-10T10:05:43.227Z,19.13
2023-09-10T10:07:56.744Z,19.08
2023-09-10T10:10:12.423Z,19.04
2023-09-10T10:12:25.447Z,19.00
2023-09-10T10:14:38.552Z,18.97
2023-09-10T10:16:52.175Z,18.95
2023-09-10T10:19:05.071Z,18.92
2023-09-10T10:21:18.294Z,18.88
2023-09-10T10:23:32.638Z,18.83
2023-09-10T10:25:47.819Z,18.79
2023-09-10T10:28:01.850Z,18.76
2023-09-10T10:30:16.219Z,18.70
2023-09-10T10:32:33.777Z,18.68
2023-09-10T10:34:54.551Z,18.65
2023-09-10T10:37:14.204Z,18.62
2023-09-10T10:39:35.705Z,18.58
2023-09-10T10:41:57.223Z,18.56
2023-09-10T10:44:26.130Z,18.51
2023-09-10T10:46:42.143Z,18.47
2023-09-10T10:48:55.263Z,18.42
2023-09-10T10:51:11.856Z,18.38
2023-09-10T10:53:25.977Z,18.35
2023-09-10T10:55:39.715Z,18.32
2023-09-10T10:57:52.257Z,18.29
2023-09-10T11:00:06.694Z,18.27
2023-09-10T11:02:27.432Z,18.24
2023-09-10T11:04:40.060Z,18.23
2023-09-10T11:07:17.523Z,18.20
2023-09-10T11:09:44.863Z,18.16
2023-09-10T11:11:57.340Z,18.14
2023-09-10T11:14:11.857Z,18.11
2023-09-10T11:16:24.749Z,18.08
2023-09-10T11:18:49.305Z,18.06
2023-09-10T11:21:02.219Z,18.03
2023-09-10T11:23:15.208Z,18.03
2023-09-10T11:25:28.509Z,18.00
2023-09-10T11:27:41.061Z,17.98
2023-09-10T11:30:11.145Z,17.96
2023-09-10T11:32:24.791Z,17.93
2023-09-10T11:34:46.390Z,17.90
2023-09-10T11:37:04.786Z,17.87
2023-09-10T11:39:18.507Z,17.85
2023-09-10T11:41:32.330Z,17.82
2023-09-10T11:43:46.107Z,17.78
2023-09-10T11:45:59.145Z,17.74
2023-09-10T11:48:12.812Z,17.71
2023-09-10T11:50:29.664Z,17.66
2023-09-10T11:52:44.318Z,17.65
2023-09-10T11:54:58.819Z,17.62
2023-09-10T11:57:12.311Z,17.60
2023-09-10T11:59:28.110Z,17.57
2023-09-10T12:01:40.589Z,17.54
2023-09-10T12:03:53.244Z,17.50
2023-09-10T12:06:07.081Z,17.45
2023-09-10T12:08:19.836Z,17.40
2023-09-10T12:10:32.854Z,17.36
2023-09-10T12:12:49.090Z,17.32
2023-09-10T12:15:02.386Z,17.29
2023-09-10T12:17:15.522Z,17.25
2023-09-10T12:19:28.480Z,17.19
2023-09-10T12:21:41.174Z,17.16
2023-09-10T12:23:56.131Z,17.11
2023-09-10T12:26:09.726Z,17.09
2023-09-10T12:28:22.507Z,17.07
2023-09-10T12:30:35.263Z,17.04
2023-09-10T12:32:47.739Z,17.03
2023-09-10T12:35:01.376Z,17.02
2023-09-10T12:37:17.195Z,17.00
2023-09-10T12:39:30.695Z,16.97
2023-09-10T12:41:43.266Z,16.97
2023-09-10T12:43:55.591Z,16.95
2023-09-10T12:46:08.130Z,16.92
2023-09-10T12:48:21.797Z,16.90
2023-09-10T12:50:34.338Z,16.87
2023-09-10T12:52:47.183Z,16.85
2023-09-10T12:55:02.948Z,16.84
2023-09-10T12:57:17.671Z,16.83
2023-09-10T12:59:30.158Z,16.80
2023-09-10T13:01:45.417Z,16.76
2023-09-10T13:03:57.809Z,16.73
2023-09-10T13:06:10.858Z,16.69
2023-09-10T13:08:23.282Z,16.66
2023-09-10T13:10:35.663Z,16.64
2023-09-10T13:12:48.557Z,16.61
2023-09-10T13:15:01.005Z,16.60
2023-09-10T13:17:14.131Z,16.57
2023-09-10T13:19:26.472Z,16.54
2023-09-10T13:21:38.858Z,16.51
2023-09-10T13:23:51.403Z,16.50
2023-09-10T13:26:04.878Z,16.49
2023-09-10T13:28:17.270Z,16.48
2023-09-10T13:30:29.793Z,16.46
2023-09-10T13:32:42.472Z,16.46
2023-09-10T13:34:54.928Z,16.46
2023-09-10T13:37:09.369Z,16.47
2023-09-10T13:39:21.922Z,16.47
2023-09-10T13:41:34.233Z,16.46
2023-09-10T13:43:46.863Z,16.44
2023-09-10T13:45:59.482Z,16.43
2023-09-10T13:48:12.643Z,16.43
2023-09-10T13:50:25.189Z,16.44
2023-09-10T13:52:37.461Z,16.45
2023-09-10T13:54:50.517Z,16.47
2023-09-10T13:57:03.310Z,16.46
2023-09-10T13:59:16.045Z,16.45
2023-09-10T14:01:28.400Z,16.44
2023-09-10T14:03:41.311Z,16.50
2023-09-10T14:05:53.844Z,16.67
2023-09-10T14:08:06.842Z,16.86
2023-09-10T14:10:19.279Z,17.03
2023-09-10T14:12:31.606Z,17.26
2023-09-10T14:14:44.074Z,17.51
2023-09-10T14:16:56.426Z,18.06
2023-09-10T14:19:08.837Z,18.70
2023-09-10T14:21:22.180Z,19.35
2023-09-10T14:23:35.571Z,20.02
2023-09-10T14:25:50.576Z,20.64
2023-09-10T14:28:03.564Z,21.15
2023-09-10T14:30:17.165Z,21.65
2023-09-10T14:32:29.564Z,22.15
2023-09-10T14:34:42.162Z,22.67
2023-09-10T14:36:54.845Z,23.14
2023-09-10T14:39:07.259Z,23.57
2023-09-10T14:41:19.858Z,23.95
2023-09-10T14:43:32.753Z,24.32
2023-09-10T14:45:46.060Z,24.68
2023-09-10T14:48:00.352Z,25.03
2023-09-10T14:50:15.133Z,25.37
2023-09-10T14:52:28.613Z,25.64
2023-09-10T14:54:40.976Z,25.62
2023-09-10T14:56:59.563Z,25.73
2023-09-10T14:59:12.245Z,25.89
2023-09-10T15:01:24.774Z,25.88
2023-09-10T15:03:37.236Z,25.71
2023-09-10T15:05:49.567Z,25.87
2023-09-10T15:08:01.990Z,26.18
2023-09-10T15:10:17.024Z,26.24
2023-09-10T15:12:29.647Z,25.92
2023-09-10T15:14:41.837Z,25.53
2023-09-10T15:16:54.139Z,25.27
2023-09-10T15:19:06.456Z,24.73
2023-09-10T15:21:19.225Z,24.27
2023-09-10T15:23:31.821Z,24.30
2023-09-10T15:25:44.098Z,24.72
2023-09-10T15:27:56.655Z,25.14
2023-09-10T15:30:10.956Z,25.47
2023-09-10T15:32:23.237Z,25.25
2023-09-10T15:34:35.560Z,24.75
2023-09-10T15:36:48.073Z,24.43
2023-09-10T15:39:00.763Z,24.50
2023-09-10T15:41:13.201Z,24.40
2023-09-10T15:43:25.538Z,24.33
2023-09-10T15:45:39.384Z,24.53
2023-09-10T15:47:52.028Z,24.78
2023-09-10T15:50:05.093Z,25.02
2023-09-10T15:52:17.580Z,25.18
2023-09-10T15:54:30.226Z,25.33
2023-09-10T15:56:42.646Z,25.41
2023-09-10T15:58:55.306Z,25.43
2023-09-10T16:01:08.481Z,25.47
2023-09-10T16:03:21.740Z,25.49
2023-09-10T16:05:36.104Z,25.57
2023-09-10T16:07:49.068Z,25.61
2023-09-10T16:10:01.590Z,25.59
2023-09-10T16:12:15.164Z,25.63
2023-09-10T16:14:27.817Z,25.73
2023-09-10T16:16:42.604Z,25.80
2023-09-10T16:19:00.309Z,25.78
2023-09-10T16:21:13.034Z,25.81
2023-09-10T16:23:25.645Z,25.79
2023-09-10T16:25:38.405Z,25.81
2023-09-10T16:27:51.547Z,25.89
2023-09-10T16:30:04.494Z,25.98
2023-09-10T16:32:17.317Z,26.00
2023-09-10T16:34:30.309Z,25.93
2023-09-10T16:36:43.325Z,25.92
2023-09-10T16:38:56.001Z,26.03
2023-09-10T16:41:08.398Z,26.17
2023-09-10T16:43:21.332Z,26.16
2023-09-10T16:45:33.753Z,26.11
2023-09-10T16:47:46.308Z,26.17
2023-09-10T16:49:58.897Z,26.29
2023-09-10T16:52:12.037Z,26.44
2023-09-10T16:54:24.668Z,26.57
2023-09-10T16:56:37.242Z,26.69
2023-09-10T16:58:49.830Z,26.85
2023-09-10T17:01:02.463Z,26.98
2023-09-10T17:03:16.149Z,27.07
2023-09-10T17:05:30.885Z,27.18
2023-09-10T17:07:45.505Z,27.20
2023-09-10T17:09:58.190Z,27.29
2023-09-10T17:12:12.498Z,27.31
2023-09-10T17:14:25.379Z,27.39
2023-09-10T17:16:37.729Z,27.45
2023-09-10T17:18:50.340Z,27.45
2023-09-10T17:21:03.207Z,27.52
2023-09-10T17:23:15.884Z,27.65
2023-09-10T17:25:28.484Z,27.73
2023-09-10T17:27:41.282Z,27.88
2023-09-10T17:29:56.544Z,28.05
2023-09-10T17:32:09.670Z,28.15
2023-09-10T17:34:22.423Z,28.21
2023-09-10T17:36:35.419Z,28.29
2023-09-10T17:38:48.476Z,28.31
2023-09-10T17:41:01.029Z,28.27
2023-09-10T17:43:13.553Z,28.30
2023-09-10T17:45:29.412Z,28.36
2023-09-10T17:47:43.302Z,28.42
2023-09-10T17:50:06.264Z,28.48
2023-09-10T17:52:19.703Z,28.53
2023-09-10T17:54:32.160Z,28.61
2023-09-10T17:56:44.929Z,28.81
2023-09-10T17:58:58.832Z,29.06
2023-09-10T18:01:11.454Z,29.29
2023-09-10T18:03:24.114Z,29.42
2023-09-10T18:05:37.331Z,29.37
2023-09-10T18:07:50.129Z,29.39
2023-09-10T18:10:02.679Z,29.47
2023-09-10T18:12:15.491Z,29.58
2023-09-10T18:14:28.401Z,29.74
2023-09-10T18:16:40.797Z,29.93
2023-09-10T18:18:53.666Z,30.13
2023-09-10T18:21:05.980Z,30.30
2023-09-10T18:23:19.618Z,30.34
2023-09-10T18:25:32.474Z,30.34
2023-09-10T18:27:44.713Z,30.35
2023-09-10T18:29:57.333Z,30.35
2023-09-10T18:32:11.172Z,30.27
2023-09-10T18:34:23.870Z,30.24
2023-09-10T18:36:37.226Z,30.24
2023-09-10T18:38:58.166Z,30.19
2023-09-10T18:41:10.705Z,30.28
2023-09-10T18:43:23.363Z,30.37
2023-09-10T18:45:36.030Z,30.51
2023-09-10T18:47:52.292Z,30.67
2023-09-10T18:50:05.242Z,30.69
2023-09-10T18:52:19.890Z,30.65
2023-09-10T18:54:32.315Z,30.65
2023-09-10T18:56:44.752Z,30.72
2023-09-10T18:58:57.673Z,30.77
2023-09-10T19:01:09.941Z,30.75
2023-09-10T19:03:22.401Z,30.71
2023-09-10T19:05:35.339Z,30.75
2023-09-10T19:07:47.965Z,30.75
2023-09-10T19:10:05.200Z,30.74
2023-09-10T19:12:37.852Z,30.89
2023-09-10T19:14:50.173Z,30.93
2023-09-10T19:17:02.964Z,30.90
2023-09-10T19:19:15.968Z,30.86
2023-09-10T19:21:28.678Z,30.81
2023-09-10T19:23:41.841Z,30.73
2023-09-10T19:25:54.527Z,30.67
2023-09-10T19:28:06.968Z,30.69
2023-09-10T19:30:20.934Z,30.66
2023-09-10T19:32:33.311Z,30.47
2023-09-10T19:34:46.044Z,30.41
2023-09-10T19:36:58.297Z,30.44
2023-09-10T19:39:13.354Z,30.51
2023-09-10T19:41:26.070Z,30.64
2023-09-10T19:43:38.857Z,30.71
2023-09-10T19:45:51.881Z,30.78
2023-09-10T19:48:04.816Z,30.86
2023-09-10T19:50:18.345Z,30.94
2023-09-10T19:52:31.100Z,31.06
2023-09-10T19:54:44.379Z,31.22
2023-09-10T19:56:59.020Z,31.39
2023-09-10T19:59:13.694Z,31.64
2023-09-10T20:01:26.441Z,31.85
2023-09-10T20:03:39.348Z,31.98
2023-09-10T20:05:53.380Z,32.11
2023-09-10T20:08:05.786Z,32.12
2023-09-10T20:10:22.640Z,32.04
2023-09-10T20:12:35.351Z,32.02
2023-09-10T20:14:48.539Z,31.98
2023-09-10T20:17:00.950Z,31.90
2023-09-10T20:19:14.308Z,31.85
2023-09-10T20:21:27.144Z,31.93
2023-09-10T20:23:41.375Z,32.00
2023-09-10T20:25:56.141Z,32.12
2023-09-10T20:28:09.025Z,32.29
2023-09-10T20:30:25.905Z,32.38
2023-09-10T20:32:38.521Z,32.45
2023-09-10T20:34:51.345Z,32.47
2023-09-10T20:37:03.755Z,32.49
2023-09-10T20:39:16.683Z,32.54
2023-09-10T20:41:29.335Z,32.51
2023-09-10T20:43:42.340Z,32.50
2023-09-10T20:45:57.117Z,32.54
2023-09-10T20:48:10.371Z,32.44
2023-09-10T20:50:23.373Z,32.35
2023-09-10T20:52:35.888Z,32.26
2023-09-10T20:54:48.262Z,32.19
2023-09-10T20:57:00.982Z,32.19
2023-09-10T20:59:16.551Z,32.19
2023-09-10T21:01:29.453Z,32.16
2023-09-10T21:03:42.442Z,32.19
2023-09-10T21:05:55.454Z,32.25
2023-09-10T21:08:08.976Z,32.29
2023-09-10T21:10:22.464Z,32.19
2023-09-10T21:12:35.253Z,32.18
2023-09-10T21:14:48.765Z,32.13
2023-09-10T21:17:01.462Z,32.04
2023-09-10T21:19:13.895Z,31.99
2023-09-10T21:21:26.433Z,31.95
2023-09-10T21:23:39.553Z,31.90
2023-09-10T21:26:01.472Z,31.85
2023-09-10T21:28:14.939Z,31.80
2023-09-10T21:30:31.366Z,31.72
2023-09-10T21:32:44.502Z,31.66
2023-09-10T21:34:58.116Z,31.58
2023-09-10T21:37:10.722Z,31.53
2023-09-10T21:39:23.041Z,31.49
2023-09-10T21:41:36.144Z,31.46
2023-09-10T21:43:48.881Z,31.49
2023-09-10T21:46:08.356Z,31.51
2023-09-10T21:48:21.357Z,31.55
2023-09-10T21:50:35.089Z,31.55
2023-09-10T21:52:47.535Z,31.54
2023-09-10T21:55:00.435Z,31.58
2023-09-10T21:57:13.314Z,31.65
2023-09-10T21:59:25.772Z,31.76
2023-09-10T22:01:38.232Z,31.73
2023-09-10T22:03:51.177Z,31.68
2023-09-10T22:06:05.110Z,31.71
2023-09-10T22:08:18.533Z,31.79
2023-09-10T22:10:31.490Z,31.77
2023-09-10T22:12:44.172Z,31.77
2023-09-10T22:15:05.852Z,31.70
2023-09-10T22:17:19.346Z,31.68
2023-09-10T22:19:33.615Z,31.69
2023-09-10T22:21:47.035Z,31.66
2023-09-10T22:24:01.951Z,31.61
2023-09-10T22:26:14.933Z,31.62
2023-09-10T22:28:28.508Z,31.64
2023-09-10T22:30:40.992Z,31.66
2023-09-10T22:32:53.644Z,31.71
2023-09-10T22:35:06.334Z,31.79
2023-09-10T22:37:19.187Z,31.79
2023-09-10T22:39:33.549Z,31.81
2023-09-10T22:41:45.994Z,31.78
2023-09-10T22:43:58.624Z,31.71
2023-09-10T22:46:13.548Z,31.66
2023-09-10T22:48:27.169Z,31.65
2023-09-10T22:50:40.092Z,31.69
2023-09-10T22:52:53.145Z,31.74
2023-09-10T22:55:05.992Z,31.78
2023-09-10T22:57:18.933Z,31.73
2023-09-10T22:59:35.486Z,31.64
2023-09-10T23:01:51.814Z,31.56
2023-09-10T23:04:08.232Z,31.50
2023-09-10T23:06:22.882Z,31.48
2023-09-10T23:08:37.830Z,31.53
2023-09-10T23:10:51.262Z,31.60
2023-09-10T23:13:04.289Z,31.67
2023-09-10T23:15:18.833Z,31.67
2023-09-10T23:17:32.637Z,31.63
2023-09-10T23:19:45.115Z,31.60
2023-09-10T23:21:57.612Z,31.60
2023-09-10T23:24:10.621Z,31.62
2023-09-10T23:26:23.031Z,31.63
2023-09-10T23:28:35.385Z,31.62
2023-09-10T23:30:47.951Z,31.59
2023-09-10T23:33:00.784Z,31.55
2023-09-10T23:35:15.086Z,31.54
2023-09-10T23:37:27.999Z,31.55
2023-09-10T23:39:41.222Z,31.59
2023-09-10T23:41:53.554Z,31.62
2023-09-10T23:44:07.000Z,31.61
2023-09-10T23:46:20.701Z,31.58
2023-09-10T23:48:34.784Z,31.57
2023-09-10T23:50:47.620Z,31.58
2023-09-10T23:53:00.130Z,31.58
2023-09-10T23:55:15.058Z,31.57
2023-09-10T23:57:27.437Z,31.54
2023-09-10T23:59:39.994Z,31.45
